createdAt,value
2018-08-25T00:01:12.298Z,13.97
2018-08-25T00:03:42.458Z,14.27
2018-08-25T00:06:12.453Z,13.97
2018-08-25T00:08:42.195Z,14.50
2018-08-25T00:11:12.191Z,14.83
2018-08-25T00:13:41.973Z,14.33
2018-08-25T00:16:11.903Z,14.00
2018-08-25T00:18:41.453Z,13.97
2018-08-25T00:21:11.637Z,12.87
2018-08-25T00:23:41.580Z,12.63
2018-08-25T00:26:11.418Z,12.93
2018-08-25T00:28:41.176Z,12.87
2018-08-25T00:31:15.943Z,12.53
2018-08-25T00:33:45.868Z,12.47
2018-08-25T00:36:15.888Z,12.50
2018-08-25T00:38:45.859Z,13.13
2018-08-25T00:41:15.699Z,12.13
2018-08-25T00:43:45.591Z,12.03
2018-08-25T00:46:15.399Z,12.33
2018-08-25T00:48:45.211Z,12.70
2018-08-25T00:51:15.131Z,12.77
2018-08-25T00:53:45.027Z,13.03
2018-08-25T00:56:15.531Z,12.73
2018-08-25T00:58:45.245Z,12.90
2018-08-25T01:01:14.942Z,13.77
2018-08-25T01:03:44.862Z,14.20
2018-08-25T01:06:14.809Z,14.13
2018-08-25T01:08:44.716Z,13.10
2018-08-25T01:11:14.444Z,14.80
2018-08-25T01:13:44.153Z,14.27
2018-08-25T01:16:13.877Z,14.33
2018-08-25T01:18:43.738Z,14.23
2018-08-25T01:21:13.704Z,15.00
2018-08-25T01:23:43.476Z,14.37
2018-08-25T01:26:13.325Z,15.20
2018-08-25T01:28:43.123Z,15.37
2018-08-25T01:31:12.762Z,15.10
2018-08-25T01:33:42.352Z,14.87
2018-08-25T01:36:12.029Z,16.47
2018-08-25T01:38:41.571Z,15.47
2018-08-25T01:41:11.270Z,14.80
2018-08-25T01:43:41.035Z,14.93
2018-08-25T01:46:10.955Z,14.77
2018-08-25T01:48:43.977Z,15.20
2018-08-25T01:51:13.593Z,13.33
2018-08-25T01:53:43.209Z,14.37
2018-08-25T01:56:12.722Z,15.40
2018-08-25T01:58:42.570Z,14.80
2018-08-25T02:01:12.517Z,14.13
2018-08-25T02:03:42.236Z,14.57
2018-08-25T02:06:11.972Z,14.33
2018-08-25T02:08:41.632Z,15.17
2018-08-25T02:11:11.453Z,14.83
2018-08-25T02:13:41.124Z,14.43
2018-08-25T02:16:11.032Z,14.23
2018-08-25T02:18:40.770Z,14.97
2018-08-25T02:21:10.618Z,14.43
2018-08-25T02:23:40.309Z,15.23
2018-08-25T02:26:10.141Z,14.10
2018-08-25T02:28:39.725Z,14.73
2018-08-25T02:31:09.228Z,14.10
2018-08-25T02:33:38.932Z,14.97
2018-08-25T02:36:08.465Z,14.53
2018-08-25T02:38:38.115Z,14.43
2018-08-25T02:41:07.720Z,14.70
2018-08-25T02:43:37.356Z,14.70
2018-08-25T02:46:07.329Z,13.87
2018-08-25T02:48:37.121Z,15.20
2018-08-25T02:51:06.905Z,12.93
2018-08-25T02:53:36.616Z,14.27
2018-08-25T02:56:06.426Z,13.83
2018-08-25T02:58:36.159Z,14.43
2018-08-25T03:01:06.762Z,14.50
2018-08-25T03:03:36.418Z,14.77
2018-08-25T03:06:06.099Z,13.33
2018-08-25T03:08:35.840Z,14.50
2018-08-25T03:11:05.415Z,14.20
2018-08-25T03:13:35.239Z,13.10
2018-08-25T03:16:04.786Z,13.50
2018-08-25T03:18:34.733Z,13.73
2018-08-25T03:21:04.330Z,14.33
2018-08-25T03:23:33.991Z,14.07
2018-08-25T03:26:03.898Z,14.27
2018-08-25T03:28:33.507Z,14.93
2018-08-25T03:31:03.173Z,15.23
2018-08-25T03:33:32.703Z,14.97
2018-08-25T03:36:02.464Z,15.20
2018-08-25T03:38:32.065Z,15.53
2018-08-25T03:41:01.803Z,15.07
2018-08-25T03:43:31.382Z,14.40
2018-08-25T03:46:01.152Z,15.33
2018-08-25T03:48:30.801Z,15.13
2018-08-25T03:51:00.454Z,15.70
2018-08-25T03:53:30.044Z,14.97
2018-08-25T03:55:59.807Z,14.90
2018-08-25T03:58:29.384Z,14.77
2018-08-25T04:00:59.072Z,15.37
2018-08-25T04:03:28.763Z,15.53
2018-08-25T04:05:58.373Z,16.30
2018-08-25T04:08:27.971Z,15.90
2018-08-25T04:10:57.699Z,15.07
2018-08-25T04:13:27.494Z,14.93
2018-08-25T04:15:57.021Z,15.17
2018-08-25T04:18:26.560Z,15.70
2018-08-25T04:20:56.360Z,15.17
2018-08-25T04:23:26.023Z,15.93
2018-08-25T04:25:55.718Z,15.90
2018-08-25T04:28:25.755Z,17.55
2018-08-25T04:30:55.962Z,14.73
2018-08-25T04:33:25.598Z,15.40
2018-08-25T04:35:55.211Z,15.40
2018-08-25T04:38:25.324Z,14.73
2018-08-25T04:40:54.894Z,14.97
2018-08-25T04:43:24.431Z,15.93
2018-08-25T04:45:54.268Z,15.90
2018-08-25T04:48:24.296Z,15.07
2018-08-25T04:50:54.137Z,16.03
2018-08-25T04:53:23.753Z,16.33
2018-08-25T04:55:53.380Z,15.73
2018-08-25T04:58:22.921Z,16.30
2018-08-25T05:00:52.693Z,16.23
2018-08-25T05:03:22.371Z,15.33
2018-08-25T05:05:52.118Z,15.47
2018-08-25T05:08:21.912Z,16.10
2018-08-25T05:10:51.497Z,15.07
2018-08-25T05:13:21.197Z,16.87
2018-08-25T05:15:51.037Z,15.97
2018-08-25T05:18:20.679Z,16.47
2018-08-25T05:20:50.682Z,16.27
2018-08-25T05:23:20.522Z,16.27
2018-08-25T05:25:50.320Z,15.93
2018-08-25T05:28:20.038Z,16.27
2018-08-25T05:30:50.133Z,16.27
2018-08-25T05:33:19.696Z,15.67
2018-08-25T05:35:49.297Z,15.73
2018-08-25T05:38:18.922Z,14.80
2018-08-25T05:40:48.734Z,16.30
2018-08-25T05:43:18.737Z,16.17
2018-08-25T05:45:48.413Z,15.80
2018-08-25T05:48:18.060Z,16.33
2018-08-25T05:50:47.975Z,16.00
2018-08-25T05:53:17.922Z,16.77
2018-08-25T05:55:47.655Z,16.67
2018-08-25T05:58:17.269Z,16.37
2018-08-25T06:00:46.979Z,16.30
2018-08-25T06:03:16.809Z,16.73
2018-08-25T06:05:46.672Z,16.83
2018-08-25T06:08:16.282Z,16.47
2018-08-25T06:10:45.821Z,16.63
2018-08-25T06:13:15.479Z,17.40
2018-08-25T06:15:45.543Z,16.83
2018-08-25T06:18:15.145Z,15.10
2018-08-25T06:20:44.842Z,14.83
2018-08-25T06:23:14.619Z,16.57
2018-08-25T06:25:44.419Z,14.77
2018-08-25T06:28:14.437Z,12.93
2018-08-25T06:30:44.455Z,13.43
2018-08-25T06:33:14.206Z,14.27
2018-08-25T06:35:43.889Z,13.37
2018-08-25T06:38:13.650Z,14.10
2018-08-25T06:40:43.639Z,12.60
2018-08-25T06:43:13.297Z,13.93
2018-08-25T06:45:43.011Z,14.03
2018-08-25T06:48:13.557Z,13.00
2018-08-25T06:50:43.432Z,13.43
2018-08-25T06:53:13.060Z,12.43
2018-08-25T06:55:42.874Z,12.97
2018-08-25T06:58:12.553Z,14.73
2018-08-25T07:00:43.840Z,14.20
2018-08-25T07:03:14.100Z,14.63
2018-08-25T07:05:43.909Z,15.77
2018-08-25T07:08:14.400Z,16.23
2018-08-25T07:10:43.990Z,15.70
2018-08-25T07:13:13.562Z,14.60
2018-08-25T07:15:43.238Z,14.37
2018-08-25T07:18:13.257Z,14.63
2018-08-25T07:20:42.857Z,15.37
2018-08-25T07:23:12.725Z,13.57
2018-08-25T07:25:42.372Z,14.50
2018-08-25T07:28:11.968Z,12.47
2018-08-25T07:30:41.702Z,12.27
2018-08-25T07:33:11.561Z,11.93
2018-08-25T07:35:41.196Z,13.43
2018-08-25T07:38:10.898Z,13.40
2018-08-25T07:40:40.649Z,10.70
2018-08-25T07:43:10.240Z,9.67
2018-08-25T07:45:40.194Z,11.90
2018-08-25T07:48:10.023Z,14.17
2018-08-25T07:50:39.779Z,15.73
2018-08-25T07:53:09.389Z,14.33
2018-08-25T07:55:39.042Z,14.20
2018-08-25T07:58:08.711Z,13.63
2018-08-25T08:00:39.237Z,13.17
2018-08-25T08:03:08.855Z,13.30
2018-08-25T08:05:39.983Z,12.23
2018-08-25T08:08:09.637Z,11.80
2018-08-25T08:10:39.398Z,12.17
2018-08-25T08:13:12.558Z,11.07
2018-08-25T08:15:42.471Z,12.47
2018-08-25T08:18:12.544Z,10.93
2018-08-25T08:20:42.584Z,12.33
2018-08-25T08:23:12.262Z,12.07
2018-08-25T08:25:41.987Z,12.33
2018-08-25T08:28:11.487Z,12.47
2018-08-25T08:30:41.315Z,12.63
2018-08-25T08:33:11.531Z,13.17
2018-08-25T08:35:41.176Z,12.87
2018-08-25T08:38:10.836Z,12.90
2018-08-25T08:40:40.425Z,13.40
2018-08-25T08:43:10.280Z,13.27
2018-08-25T08:45:40.000Z,12.53
2018-08-25T08:48:09.742Z,12.33
2018-08-25T08:50:39.518Z,12.53
2018-08-25T08:53:09.324Z,11.87
2018-08-25T08:55:38.953Z,12.33
2018-08-25T08:58:08.643Z,13.10
2018-08-25T09:00:38.165Z,13.23
2018-08-25T09:03:07.838Z,13.80
2018-08-25T09:05:37.613Z,12.33
2018-08-25T09:08:07.537Z,12.13
2018-08-25T09:10:37.126Z,13.00
2018-08-25T09:13:07.076Z,12.90
2018-08-25T09:15:37.639Z,12.57
2018-08-25T09:18:07.532Z,12.93
2018-08-25T09:20:37.104Z,13.00
2018-08-25T09:23:06.991Z,12.60
2018-08-25T09:25:36.505Z,12.73
2018-08-25T09:28:06.206Z,12.27
2018-08-25T09:30:42.474Z,12.27
2018-08-25T09:33:12.246Z,12.03
2018-08-25T09:35:41.908Z,12.93
2018-08-25T09:38:11.657Z,11.80
2018-08-25T09:40:41.304Z,12.43
2018-08-25T09:43:10.918Z,12.20
2018-08-25T09:45:40.563Z,11.57
2018-08-25T09:48:13.240Z,11.70
2018-08-25T09:50:42.943Z,11.37
2018-08-25T09:53:12.651Z,12.33
2018-08-25T09:55:42.710Z,11.90
2018-08-25T09:58:12.446Z,11.97
2018-08-25T10:00:42.147Z,12.30
2018-08-25T10:03:11.729Z,10.93
2018-08-25T10:05:41.398Z,11.33
2018-08-25T10:08:11.427Z,11.73
2018-08-25T10:10:41.003Z,12.17
2018-08-25T10:13:10.834Z,12.17
2018-08-25T10:15:40.571Z,13.27
2018-08-25T10:18:10.296Z,11.77
2018-08-25T10:20:40.089Z,11.80
2018-08-25T10:23:09.842Z,12.83
2018-08-25T10:25:39.511Z,11.27
2018-08-25T10:28:09.132Z,13.13
2018-08-25T10:30:38.640Z,13.80
2018-08-25T10:33:08.625Z,13.27
2018-08-25T10:35:38.292Z,13.13
2018-08-25T10:38:07.967Z,12.53
2018-08-25T10:40:37.776Z,12.63
2018-08-25T10:43:07.896Z,12.50
2018-08-25T10:45:37.617Z,13.40
2018-08-25T10:48:07.672Z,13.90
2018-08-25T10:50:37.641Z,13.63
2018-08-25T10:53:07.466Z,12.40
2018-08-25T10:55:37.170Z,12.53
2018-08-25T10:58:07.110Z,13.63
2018-08-25T11:00:37.264Z,12.63
2018-08-25T11:03:06.869Z,12.80
2018-08-25T11:05:36.712Z,12.67
2018-08-25T11:08:06.672Z,12.13
2018-08-25T11:10:36.822Z,12.43
2018-08-25T11:13:06.668Z,12.30
2018-08-25T11:15:36.427Z,12.03
2018-08-25T11:18:05.977Z,13.80
2018-08-25T11:20:35.888Z,12.30
2018-08-25T11:23:05.637Z,13.13
2018-08-25T11:25:35.293Z,12.93
2018-08-25T11:28:04.821Z,12.83
2018-08-25T11:30:34.536Z,12.47
2018-08-25T11:33:04.392Z,11.67
2018-08-25T11:35:33.949Z,12.50
2018-08-25T11:38:03.647Z,13.17
2018-08-25T11:40:33.153Z,12.60
2018-08-25T11:43:02.938Z,13.13
2018-08-25T11:45:32.757Z,12.87
2018-08-25T11:48:02.642Z,12.63
2018-08-25T11:50:32.341Z,12.57
2018-08-25T11:53:08.544Z,12.83
2018-08-25T11:55:38.281Z,13.33
2018-08-25T11:58:08.257Z,12.27
2018-08-25T12:00:38.261Z,12.63
2018-08-25T12:03:08.331Z,13.83
2018-08-25T12:05:38.504Z,12.50
2018-08-25T12:08:09.108Z,12.87
2018-08-25T12:10:40.149Z,13.10
2018-08-25T12:13:09.964Z,11.67
2018-08-25T12:15:39.754Z,12.80
2018-08-25T12:18:09.381Z,14.13
2018-08-25T12:20:39.053Z,12.83
2018-08-25T12:23:08.749Z,12.63
2018-08-25T12:25:38.583Z,12.37
2018-08-25T12:28:08.527Z,12.43
2018-08-25T12:30:38.336Z,12.60
2018-08-25T12:33:09.892Z,13.03
2018-08-25T12:35:39.563Z,12.80
2018-08-25T12:38:09.461Z,12.27
2018-08-25T12:40:39.138Z,13.50
2018-08-25T12:43:08.821Z,13.10
2018-08-25T12:45:38.316Z,12.20
2018-08-25T12:48:08.436Z,13.33
2018-08-25T12:50:38.479Z,12.73
2018-08-25T12:53:08.082Z,12.90
2018-08-25T12:55:37.778Z,12.50
2018-08-25T12:58:07.561Z,12.90
2018-08-25T13:00:37.195Z,13.00
2018-08-25T13:03:07.359Z,13.23
2018-08-25T13:05:37.429Z,12.40
2018-08-25T13:08:07.026Z,13.03
2018-08-25T13:10:36.840Z,12.20
2018-08-25T13:13:06.635Z,13.03
2018-08-25T13:15:36.372Z,13.30
2018-08-25T13:18:06.178Z,12.40
2018-08-25T13:20:35.859Z,13.07
2018-08-25T13:23:06.066Z,12.00
2018-08-25T13:25:35.772Z,12.40
2018-08-25T13:28:05.474Z,12.33
2018-08-25T13:30:35.310Z,12.73
2018-08-25T13:33:05.229Z,11.77
2018-08-25T13:35:34.842Z,11.80
2018-08-25T13:38:04.535Z,10.23
2018-08-25T13:40:34.359Z,12.60
2018-08-25T13:43:04.011Z,13.17
2018-08-25T13:45:33.878Z,10.93
2018-08-25T13:48:03.739Z,10.57
2018-08-25T13:50:33.412Z,10.50
2018-08-25T13:53:03.141Z,10.00
2018-08-25T13:55:32.891Z,10.10
2018-08-25T13:58:02.841Z,10.27
2018-08-25T14:00:32.472Z,10.20
2018-08-25T14:03:02.554Z,10.73
2018-08-25T14:05:32.436Z,9.57
2018-08-25T14:08:02.468Z,9.63
2018-08-25T14:10:32.942Z,9.33
2018-08-25T14:13:02.734Z,10.60
2018-08-25T14:15:32.596Z,10.50
2018-08-25T14:18:03.704Z,9.60
2018-08-25T14:20:33.660Z,9.10
2018-08-25T14:23:03.396Z,9.97
2018-08-25T14:25:33.037Z,10.60
2018-08-25T14:28:02.845Z,9.63
2018-08-25T14:30:32.555Z,9.53
2018-08-25T14:33:02.285Z,9.80
2018-08-25T14:35:31.957Z,9.97
2018-08-25T14:38:02.152Z,8.63
2018-08-25T14:40:31.739Z,9.60
2018-08-25T14:43:01.497Z,8.83
2018-08-25T14:45:31.197Z,9.50
2018-08-25T14:48:01.002Z,10.23
2018-08-25T14:50:30.615Z,9.17
2018-08-25T14:53:00.345Z,8.60
2018-08-25T14:55:30.458Z,9.03
2018-08-25T14:58:00.267Z,9.17
2018-08-25T15:00:30.022Z,8.60
2018-08-25T15:02:59.982Z,8.70
2018-08-25T15:05:30.201Z,9.43
2018-08-25T15:08:00.351Z,9.13
2018-08-25T15:10:30.529Z,9.13
2018-08-25T15:13:00.749Z,8.50
2018-08-25T15:15:30.487Z,8.63
2018-08-25T15:18:00.167Z,9.27
2018-08-25T15:20:29.850Z,7.97
2018-08-25T15:22:59.495Z,8.27
2018-08-25T15:25:29.144Z,8.90
2018-08-25T15:27:59.109Z,8.83
2018-08-25T15:30:28.756Z,8.60
2018-08-25T15:33:04.710Z,8.83
2018-08-25T15:35:34.473Z,8.87
2018-08-25T15:38:04.347Z,9.03
2018-08-25T15:40:34.071Z,8.40
2018-08-25T15:43:03.893Z,9.17
2018-08-25T15:45:33.774Z,8.40
2018-08-25T15:48:03.731Z,8.43
2018-08-25T15:50:33.405Z,8.37
2018-08-25T15:53:03.055Z,8.97
2018-08-25T15:55:32.773Z,8.53
2018-08-25T15:58:02.900Z,9.07
2018-08-25T16:00:32.587Z,8.33
2018-08-25T16:03:02.252Z,8.63
2018-08-25T16:05:31.926Z,8.60
2018-08-25T16:08:01.552Z,9.47
2018-08-25T16:10:31.241Z,9.77
2018-08-25T16:13:01.020Z,8.90
2018-08-25T16:15:30.784Z,7.97
2018-08-25T16:18:00.426Z,8.33
2018-08-25T16:20:30.072Z,8.80
2018-08-25T16:22:59.747Z,8.40
2018-08-25T16:25:29.900Z,7.30
2018-08-25T16:27:59.456Z,7.67
2018-08-25T16:30:29.141Z,7.80
2018-08-25T16:32:58.908Z,7.63
2018-08-25T16:35:28.760Z,8.20
2018-08-25T16:37:58.526Z,8.67
2018-08-25T16:40:28.790Z,7.80
2018-08-25T16:42:58.401Z,8.40
2018-08-25T16:45:28.056Z,10.37
2018-08-25T16:47:57.738Z,9.83
2018-08-25T16:50:27.425Z,10.83
2018-08-25T16:52:57.118Z,9.50
2018-08-25T16:55:28.004Z,8.47
2018-08-25T16:57:57.666Z,8.77
2018-08-25T17:00:27.372Z,9.67
2018-08-25T17:02:57.561Z,8.80
2018-08-25T17:05:27.273Z,9.13
2018-08-25T17:07:57.201Z,9.07
2018-08-25T17:10:27.098Z,9.30
2018-08-25T17:12:57.830Z,8.20
2018-08-25T17:15:28.450Z,8.80
2018-08-25T17:17:58.450Z,8.50
2018-08-25T17:20:28.341Z,8.40
2018-08-25T17:22:58.161Z,7.87
2018-08-25T17:25:27.988Z,8.20
2018-08-25T17:27:57.948Z,8.60
2018-08-25T17:30:27.839Z,8.83
2018-08-25T17:32:57.539Z,8.77
2018-08-25T17:35:27.272Z,9.13
2018-08-25T17:37:57.188Z,8.00
2018-08-25T17:40:26.882Z,8.27
2018-08-25T17:42:56.779Z,9.33
2018-08-25T17:45:26.572Z,9.45
2018-08-25T17:47:56.524Z,9.33
2018-08-25T17:50:26.186Z,8.80
2018-08-25T17:52:55.893Z,8.97
2018-08-25T17:55:25.676Z,9.13
2018-08-25T17:57:55.369Z,8.97
2018-08-25T18:00:25.123Z,9.37
2018-08-25T18:02:54.757Z,9.27
2018-08-25T18:05:24.774Z,10.27
2018-08-25T18:07:54.511Z,9.30
2018-08-25T18:10:24.221Z,8.80
2018-08-25T18:12:54.224Z,8.80
2018-08-25T18:15:23.786Z,9.00
2018-08-25T18:17:53.696Z,10.27
2018-08-25T18:20:23.249Z,10.80
2018-08-25T18:22:53.015Z,9.90
2018-08-25T18:25:23.856Z,9.80
2018-08-25T18:27:53.830Z,9.80
2018-08-25T18:30:23.528Z,10.13
2018-08-25T18:32:53.064Z,9.30
2018-08-25T18:35:22.829Z,8.70
2018-08-25T18:37:52.493Z,9.33
2018-08-25T18:40:22.335Z,9.70
2018-08-25T18:42:52.113Z,10.57
2018-08-25T18:45:21.910Z,10.57
2018-08-25T18:47:51.857Z,10.23
2018-08-25T18:50:21.730Z,10.37
2018-08-25T18:52:51.492Z,10.00
2018-08-25T18:55:21.114Z,8.93
2018-08-25T18:57:51.016Z,9.67
2018-08-25T19:00:20.834Z,8.73
2018-08-25T19:02:50.845Z,9.23
2018-08-25T19:05:21.275Z,9.00
2018-08-25T19:07:51.194Z,9.10
2018-08-25T19:10:20.752Z,9.00
2018-08-25T19:12:50.612Z,8.13
2018-08-25T19:15:20.304Z,10.23
2018-08-25T19:17:50.148Z,8.70
2018-08-25T19:20:19.789Z,8.73
2018-08-25T19:22:49.521Z,8.10
2018-08-25T19:25:19.316Z,8.33
2018-08-25T19:27:48.871Z,8.17
2018-08-25T19:30:19.558Z,7.30
2018-08-25T19:32:49.345Z,7.47
2018-08-25T19:35:19.049Z,8.70
2018-08-25T19:37:50.297Z,8.37
2018-08-25T19:40:20.384Z,9.10
2018-08-25T19:42:50.201Z,9.50
2018-08-25T19:45:20.119Z,8.60
2018-08-25T19:47:49.686Z,7.20
2018-08-25T19:50:19.738Z,7.40
2018-08-25T19:52:49.711Z,7.40
2018-08-25T19:55:19.310Z,7.00
2018-08-25T19:57:49.173Z,7.57
2018-08-25T20:00:18.943Z,7.90
2018-08-25T20:02:48.642Z,8.17
2018-08-25T20:05:18.303Z,8.33
2018-08-25T20:07:47.971Z,8.00
2018-08-25T20:10:18.250Z,7.47
2018-08-25T20:12:47.905Z,8.13
2018-08-25T20:15:17.812Z,8.17
2018-08-25T20:17:47.878Z,8.07
2018-08-25T20:20:17.553Z,7.80
2018-08-25T20:22:47.461Z,8.40
2018-08-25T20:25:17.266Z,8.80
2018-08-25T20:27:47.385Z,8.40
2018-08-25T20:30:17.169Z,8.63
2018-08-25T20:32:47.027Z,8.47
2018-08-25T20:35:17.065Z,8.77
2018-08-25T20:37:46.846Z,8.47
2018-08-25T20:40:16.759Z,7.10
2018-08-25T20:42:46.522Z,8.03
2018-08-25T20:45:16.236Z,7.93
2018-08-25T20:47:45.958Z,8.00
2018-08-25T20:50:15.771Z,9.03
2018-08-25T20:52:45.625Z,8.70
2018-08-25T20:55:15.323Z,8.30
2018-08-25T20:57:45.092Z,8.03
2018-08-25T21:00:15.047Z,8.30
2018-08-25T21:02:45.070Z,8.43
2018-08-25T21:05:14.674Z,8.23
2018-08-25T21:07:44.547Z,7.73
2018-08-25T21:10:14.265Z,7.67
2018-08-25T21:12:44.220Z,8.60
2018-08-25T21:15:14.027Z,8.23
2018-08-25T21:17:44.151Z,8.03
2018-08-25T21:20:13.769Z,8.37
2018-08-25T21:22:43.531Z,8.23
2018-08-25T21:25:13.212Z,8.20
2018-08-25T21:27:42.804Z,8.47
2018-08-25T21:30:12.431Z,8.23
2018-08-25T21:32:42.372Z,8.47
2018-08-25T21:35:12.089Z,9.00
2018-08-25T21:37:41.850Z,9.17
2018-08-25T21:40:11.557Z,8.67
2018-08-25T21:42:41.160Z,8.60
2018-08-25T21:45:11.071Z,8.33
2018-08-25T21:47:40.758Z,8.57
2018-08-25T21:50:10.862Z,8.50
2018-08-25T21:52:40.449Z,8.70
2018-08-25T21:55:10.168Z,8.97
2018-08-25T21:57:39.778Z,8.90
2018-08-25T22:00:09.632Z,9.57
2018-08-25T22:02:39.308Z,10.13
2018-08-25T22:05:09.076Z,10.40
2018-08-25T22:07:38.719Z,11.57
2018-08-25T22:10:08.582Z,10.83
2018-08-25T22:12:38.295Z,11.07
2018-08-25T22:15:07.995Z,10.73
2018-08-25T22:17:37.609Z,10.20
2018-08-25T22:20:10.337Z,10.17
2018-08-25T22:22:40.142Z,10.13
2018-08-25T22:25:09.869Z,9.70
2018-08-25T22:27:39.457Z,9.70
2018-08-25T22:30:09.591Z,10.40
2018-08-25T22:32:39.504Z,11.17
2018-08-25T22:35:09.256Z,11.00
2018-08-25T22:37:38.915Z,10.50
2018-08-25T22:40:08.612Z,10.53
2018-08-25T22:42:38.307Z,10.73
2018-08-25T22:45:08.067Z,10.67
2018-08-25T22:47:37.973Z,10.67
2018-08-25T22:50:07.886Z,11.27
2018-08-25T22:52:42.713Z,11.47
2018-08-25T22:55:12.361Z,10.53
2018-08-25T22:57:41.993Z,11.27
2018-08-25T23:00:12.013Z,10.50
2018-08-25T23:02:42.439Z,10.67
2018-08-25T23:05:12.442Z,10.33
2018-08-25T23:07:42.184Z,11.00
2018-08-25T23:10:11.800Z,10.80
2018-08-25T23:12:41.777Z,10.60
2018-08-25T23:15:11.630Z,12.53
2018-08-25T23:17:41.499Z,11.47
2018-08-25T23:20:11.216Z,12.57
2018-08-25T23:22:41.093Z,11.80
2018-08-25T23:25:10.940Z,11.63
2018-08-25T23:27:40.904Z,12.17
2018-08-25T23:30:14.185Z,12.03
2018-08-25T23:32:43.932Z,13.13
2018-08-25T23:35:13.761Z,13.33
2018-08-25T23:37:43.375Z,13.17
2018-08-25T23:40:13.452Z,13.30
2018-08-25T23:42:43.224Z,14.00
2018-08-25T23:45:12.842Z,13.20
2018-08-25T23:47:42.483Z,13.60
2018-08-25T23:50:12.056Z,12.83
2018-08-25T23:52:41.851Z,13.13
2018-08-25T23:55:11.628Z,13.77
2018-08-25T23:57:41.426Z,13.23
